Time;durP1;ratioP1;P1;durP2;ratioP2;P2;SDS_P1;SDS_P2;PMS_P1;PMS_P2;Temp;Humidity;BMP_temperature;BMP_pressure;BME280_temperature;BME280_humidity;BME280_pressure;Samples;Min_cycle;Max_cycle;Signal;HPM_P1;HPM_P2
2021/11/22 00:01:12;;;;;;;19.70;12.02;;;23.80;43.90;;;;;;6142607;28;86148;-68
2021/11/22 00:04:12;;;;;;;20.98;11.60;;;23.80;44.00;;;;;;6138362;28;83417;-67
2021/11/22 00:07:15;;;;;;;20.52;11.95;;;23.80;43.90;;;;;;6148529;28;84195;-67
2021/11/22 00:10:16;;;;;;;19.33;12.32;;;23.80;43.90;;;;;;6135322;28;83227;-67
2021/11/22 00:13:16;;;;;;;16.33;10.80;;;23.80;44.00;;;;;;6137892;28;85850;-67
2021/11/22 00:16:17;;;;;;;18.60;11.38;;;23.80;44.00;;;;;;6139978;28;83509;-67
2021/11/22 00:19:17;;;;;;;20.10;11.30;;;23.80;44.10;;;;;;6144681;28;84164;-67
2021/11/22 00:22:18;;;;;;;17.13;9.93;;;23.80;44.60;;;;;;6135490;28;82985;-67
2021/11/22 00:25:18;;;;;;;19.17;11.18;;;23.80;44.50;;;;;;6144690;28;83061;-66
2021/11/22 00:28:19;;;;;;;21.13;11.82;;;23.80;44.40;;;;;;6137475;28;83321;-66
2021/11/22 00:31:41;;;;;;;17.15;11.15;;;23.80;44.60;;;;;;6147121;28;83893;-67
2021/11/22 00:34:54;;;;;;;17.35;10.45;;;23.80;44.60;;;;;;6137628;28;85929;-67
2021/11/22 00:38:12;;;;;;;17.40;11.32;;;23.80;44.60;;;;;;6147879;28;85924;-67
2021/11/22 00:41:13;;;;;;;18.90;11.15;;;23.80;44.70;;;;;;6146560;28;83970;-67
2021/11/22 00:44:13;;;;;;;18.50;11.25;;;23.80;44.80;;;;;;6136964;28;83200;-67
2021/11/22 00:47:14;;;;;;;17.02;10.80;;;23.80;44.90;;;;;;6139646;28;82894;-67
2021/11/22 00:50:14;;;;;;;17.70;11.13;;;23.80;44.80;;;;;;6145527;28;83355;-66
2021/11/22 00:53:15;;;;;;;15.75;9.88;;;23.80;45.00;;;;;;6152075;28;82946;-66
2021/11/22 00:56:17;;;;;;;15.95;10.25;;;23.80;45.00;;;;;;6152626;28;83226;-67
2021/11/22 00:59:19;;;;;;;19.92;12.27;;;23.80;45.20;;;;;;6140626;28;84858;-65
2021/11/22 01:02:22;;;;;;;22.33;12.68;;;23.80;45.20;;;;;;6141180;28;83028;-66
2021/11/22 01:05:22;;;;;;;16.77;10.77;;;23.80;45.20;;;;;;6151183;28;83296;-66
2021/11/22 01:08:23;;;;;;;18.95;11.98;;;23.80;45.40;;;;;;6145875;28;83033;-66
2021/11/22 01:11:23;;;;;;;20.33;12.10;;;23.80;45.30;;;;;;6152065;28;83002;-65
2021/11/22 01:14:24;;;;;;;17.23;10.65;;;23.80;45.60;;;;;;6140955;28;84493;-66
2021/11/22 01:17:24;;;;;;;18.02;11.80;;;23.80;45.40;;;;;;6136989;28;83567;-67
2021/11/22 01:20:28;;;;;;;18.45;11.48;;;23.80;45.60;;;;;;6143932;28;84562;-67
2021/11/22 01:23:29;;;;;;;20.33;12.57;;;23.80;45.60;;;;;;6152260;28;82867;-66
2021/11/22 01:26:29;;;;;;;19.83;11.27;;;23.80;45.60;;;;;;6148920;28;83906;-67
2021/11/22 01:29:30;;;;;;;17.60;11.10;;;23.70;45.50;;;;;;6146005;28;84015;-67
2021/11/22 01:32:30;;;;;;;18.10;10.93;;;23.70;45.90;;;;;;6138668;28;83895;-67
2021/11/22 01:35:31;;;;;;;16.63;11.20;;;23.70;46.00;;;;;;6151014;28;83243;-66
2021/11/22 01:38:31;;;;;;;20.70;12.02;;;23.70;46.10;;;;;;6143280;28;83409;-67
2021/11/22 01:41:32;;;;;;;19.00;11.10;;;23.70;46.10;;;;;;6139512;28;83142;-67
2021/11/22 01:44:32;;;;;;;21.00;12.10;;;23.70;45.80;;;;;;6139844;28;83303;-67
2021/11/22 01:47:33;;;;;;;19.38;11.65;;;23.70;46.50;;;;;;6139484;28;83128;-67
2021/11/22 01:50:33;;;;;;;20.75;11.65;;;23.70;46.70;;;;;;6148881;28;84253;-67
2021/11/22 01:53:34;;;;;;;16.30;10.73;;;23.70;46.60;;;;;;6155680;28;83436;-67
2021/11/22 01:56:34;;;;;;;17.25;10.60;;;23.70;47.20;;;;;;6143123;28;83500;-66
2021/11/22 01:59:35;;;;;;;21.20;11.82;;;23.70;47.10;;;;;;6147285;28;83415;-67
2021/11/22 02:02:36;;;;;;;17.50;11.10;;;23.70;47.50;;;;;;6141725;28;83366;-67
2021/11/22 02:05:36;;;;;;;20.70;11.52;;;23.70;46.80;;;;;;6147207;28;82885;-67
2021/11/22 02:08:37;;;;;;;19.85;11.80;;;23.70;46.30;;;;;;6150907;28;83201;-67
2021/11/22 02:11:37;;;;;;;19.77;12.65;;;23.70;46.10;;;;;;6148301;28;82972;-68
2021/11/22 02:14:38;;;;;;;17.98;11.05;;;23.70;45.90;;;;;;6141603;28;82966;-66
2021/11/22 02:17:39;;;;;;;21.70;11.90;;;23.70;46.30;;;;;;6143618;28;84101;-66
2021/11/22 02:20:39;;;;;;;19.63;12.00;;;23.70;45.90;;;;;;6143054;28;83288;-67
2021/11/22 02:23:40;;;;;;;19.90;12.45;;;23.70;46.30;;;;;;6150076;28;83230;-67
2021/11/22 02:26:41;;;;;;;20.52;12.27;;;23.70;46.10;;;;;;6139347;28;83356;-66
2021/11/22 02:29:41;;;;;;;16.33;11.02;;;23.70;46.20;;;;;;6154327;28;83634;-67
2021/11/22 02:32:42;;;;;;;20.92;12.80;;;23.70;46.30;;;;;;6151512;28;83874;-67
2021/11/22 02:35:42;;;;;;;20.55;12.75;;;23.70;46.20;;;;;;6150006;28;83110;-67
2021/11/22 02:38:44;;;;;;;19.70;12.27;;;23.70;46.40;;;;;;6143954;28;82853;-67
2021/11/22 02:41:45;;;;;;;22.17;11.75;;;23.70;46.10;;;;;;6148053;28;83332;-67
2021/11/22 02:44:45;;;;;;;19.10;11.77;;;23.70;46.10;;;;;;6147941;28;83244;-66
2021/11/22 02:47:46;;;;;;;21.67;12.70;;;23.60;46.30;;;;;;6137478;28;83521;-67
2021/11/22 02:50:46;;;;;;;20.73;12.07;;;23.70;46.40;;;;;;6149496;28;83070;-67
2021/11/22 02:53:47;;;;;;;21.15;13.00;;;23.60;46.30;;;;;;6140855;28;84401;-67
2021/11/22 02:56:47;;;;;;;19.25;11.63;;;23.70;46.20;;;;;;6142744;28;83247;-67
2021/11/22 02:59:48;;;;;;;22.35;12.65;;;23.70;46.30;;;;;;6147204;28;83388;-67
2021/11/22 03:02:48;;;;;;;19.17;11.50;;;23.70;46.40;;;;;;6144661;28;84097;-67
2021/11/22 03:05:49;;;;;;;22.58;11.75;;;23.60;47.00;;;;;;6139936;28;83413;-67
2021/11/22 03:08:49;;;;;;;20.77;12.13;;;23.60;47.00;;;;;;6141354;28;83278;-67
2021/11/22 03:11:50;;;;;;;20.50;12.07;;;23.70;46.50;;;;;;6140887;28;83495;-66
2021/11/22 03:14:51;;;;;;;17.17;10.55;;;23.70;46.80;;;;;;6147109;28;83411;-67
2021/11/22 03:17:51;;;;;;;21.90;12.25;;;23.70;47.10;;;;;;6140959;28;84239;-67
2021/11/22 03:20:52;;;;;;;26.05;14.25;;;23.70;46.30;;;;;;6144302;28;84519;-67
2021/11/22 03:23:52;;;;;;;21.10;13.38;;;23.60;45.60;;;;;;6143027;28;83275;-67
2021/11/22 03:26:53;;;;;;;23.48;13.10;;;23.60;45.60;;;;;;6143396;28;84667;-67
2021/11/22 03:29:53;;;;;;;24.02;13.50;;;23.70;45.50;;;;;;6154967;28;86947;-67
2021/11/22 03:32:54;;;;;;;24.83;14.15;;;23.70;45.20;;;;;;6142453;28;84174;-67
2021/11/22 03:35:55;;;;;;;23.30;13.18;;;23.70;45.10;;;;;;6140472;28;83203;-68
2021/11/22 03:38:56;;;;;;;21.90;14.02;;;23.70;45.20;;;;;;6142357;28;83312;-68
2021/11/22 03:41:58;;;;;;;25.73;14.68;;;23.80;45.80;;;;;;6146362;28;83990;-66
2021/11/22 03:44:58;;;;;;;23.63;13.48;;;23.80;45.50;;;;;;6147188;28;84490;-68
2021/11/22 03:47:59;;;;;;;26.55;15.00;;;23.80;45.30;;;;;;6138661;28;82996;-67
2021/11/22 03:50:59;;;;;;;25.63;13.57;;;23.90;45.40;;;;;;6149776;28;83116;-68
2021/11/22 03:54:00;;;;;;;25.75;14.65;;;23.90;45.50;;;;;;6139178;28;84212;-68
2021/11/22 03:57:01;;;;;;;24.48;14.60;;;23.90;45.60;;;;;;6137337;28;82919;-67
2021/11/22 04:00:01;;;;;;;27.77;16.08;;;23.90;45.60;;;;;;6136786;28;83147;-68
2021/11/22 04:03:02;;;;;;;25.15;13.68;;;23.90;45.70;;;;;;6149942;28;83549;-67
2021/11/22 04:06:02;;;;;;;24.45;14.48;;;23.90;45.70;;;;;;6152729;28;86034;-67
2021/11/22 04:09:03;;;;;;;25.92;13.73;;;24.00;45.70;;;;;;6134630;28;83952;-67
2021/11/22 04:12:03;;;;;;;27.88;15.15;;;23.90;45.50;;;;;;6150625;28;83433;-67
2021/11/22 04:15:04;;;;;;;24.90;14.98;;;23.90;45.50;;;;;;6149019;28;83719;-67
2021/11/22 04:18:04;;;;;;;24.33;14.60;;;24.00;45.60;;;;;;6150503;28;83558;-67
2021/11/22 04:21:05;;;;;;;27.95;15.43;;;23.90;45.50;;;;;;6140531;28;83547;-67
2021/11/22 04:24:05;;;;;;;25.55;15.07;;;24.00;45.50;;;;;;6152309;28;83577;-67
2021/11/22 04:27:09;;;;;;;23.75;14.35;;;24.00;45.50;;;;;;6132385;28;83369;-68
2021/11/22 04:30:09;;;;;;;24.50;14.85;;;24.00;45.50;;;;;;6149407;28;83758;-68
2021/11/22 04:33:10;;;;;;;23.08;13.80;;;24.00;45.60;;;;;;6146996;28;82980;-68
2021/11/22 04:36:10;;;;;;;24.73;13.80;;;24.00;45.50;;;;;;6144637;28;83164;-67
2021/11/22 04:39:11;;;;;;;23.98;13.88;;;24.00;45.50;;;;;;6137293;28;83159;-67
2021/11/22 04:42:11;;;;;;;24.70;14.88;;;24.00;45.50;;;;;;6147759;28;83997;-67
2021/11/22 04:45:12;;;;;;;23.08;13.73;;;24.00;45.60;;;;;;6151927;28;83064;-67
2021/11/22 04:48:13;;;;;;;25.42;14.13;;;24.00;45.60;;;;;;6137931;28;83987;-67
2021/11/22 04:51:13;;;;;;;24.60;13.90;;;24.00;45.60;;;;;;6147563;28;83597;-68
2021/11/22 04:54:14;;;;;;;20.15;12.40;;;24.00;45.70;;;;;;6146158;28;85373;-67
2021/11/22 04:57:14;;;;;;;23.85;13.60;;;24.00;45.70;;;;;;6153717;28;84230;-67
2021/11/22 05:00:15;;;;;;;22.23;12.65;;;24.00;45.70;;;;;;6154257;28;83965;-67
2021/11/22 05:03:15;;;;;;;23.02;12.68;;;24.00;45.70;;;;;;6149034;28;83221;-68
2021/11/22 05:06:16;;;;;;;22.60;12.50;;;24.10;45.70;;;;;;6151553;28;83527;-65
2021/11/22 05:09:19;;;;;;;20.90;12.50;;;24.10;45.80;;;;;;6150156;28;83086;-66
2021/11/22 05:12:21;;;;;;;19.63;12.18;;;24.10;45.60;;;;;;6155422;28;83515;-65
2021/11/22 05:15:22;;;;;;;18.73;11.77;;;24.00;45.50;;;;;;6153557;28;83036;-66
2021/11/22 05:18:23;;;;;;;18.52;10.98;;;24.00;47.00;;;;;;6154413;28;82995;-65
2021/11/22 05:21:25;;;;;;;14.95;8.98;;;23.90;48.20;;;;;;6143026;28;83926;-66
2021/11/22 05:24:26;;;;;;;14.30;8.35;;;23.90;49.20;;;;;;6151600;28;83003;-65
2021/11/22 05:27:26;;;;;;;13.10;8.15;;;23.90;50.00;;;;;;6151500;28;80425;-66
2021/11/22 05:30:27;;;;;;;14.52;8.00;;;23.90;50.80;;;;;;6157109;28;80680;-67
2021/11/22 05:33:27;;;;;;;12.23;7.47;;;23.80;50.70;;;;;;6153779;28;82838;-66
2021/11/22 05:36:28;;;;;;;11.93;6.68;;;23.80;51.00;;;;;;6148021;28;84161;-68
2021/11/22 05:39:28;;;;;;;15.40;7.85;;;23.80;51.60;;;;;;6151143;28;87136;-67
2021/11/22 05:42:29;;;;;;;13.88;7.80;;;23.80;52.20;;;;;;6150212;28;80437;-67
2021/11/22 05:45:29;;;;;;;14.50;7.65;;;23.80;52.40;;;;;;6152000;28;81100;-66
2021/11/22 05:48:30;;;;;;;11.05;7.13;;;23.80;52.60;;;;;;6144286;28;80463;-67
2021/11/22 05:51:31;;;;;;;11.80;7.25;;;23.80;52.70;;;;;;6154865;28;80582;-66
2021/11/22 05:54:32;;;;;;;14.77;7.38;;;23.70;52.90;;;;;;6149943;28;80564;-66
2021/11/22 05:57:32;;;;;;;50.85;20.65;;;23.80;53.30;;;;;;6149792;28;81024;-67
2021/11/22 06:00:33;;;;;;;64.85;28.58;;;23.70;53.40;;;;;;6146597;28;82859;-66
2021/11/22 06:03:33;;;;;;;94.25;36.33;;;23.80;53.50;;;;;;6139147;28;85611;-65
2021/11/22 06:06:34;;;;;;;80.55;34.55;;;23.80;53.10;;;;;;6150391;28;83153;-69
2021/11/22 06:09:35;;;;;;;74.13;31.50;;;23.70;53.70;;;;;;6143333;28;83544;-66
2021/11/22 06:12:35;;;;;;;78.05;30.35;;;23.60;54.30;;;;;;6135808;28;85404;-65
2021/11/22 06:15:36;;;;;;;74.45;31.08;;;23.70;54.70;;;;;;6149447;28;83964;-66
2021/11/22 06:18:36;;;;;;;70.78;30.88;;;23.70;54.40;;;;;;6140000;28;83219;-65
2021/11/22 06:21:37;;;;;;;85.57;35.58;;;23.80;54.40;;;;;;6139140;28;83383;-66
2021/11/22 06:24:37;;;;;;;83.40;34.58;;;23.90;53.80;;;;;;6137281;28;83412;-67
2021/11/22 06:27:38;;;;;;;100.30;40.05;;;23.90;53.60;;;;;;6148242;28;83263;-68
2021/11/22 06:30:38;;;;;;;91.28;38.28;;;23.90;53.10;;;;;;6151762;28;82913;-68
2021/11/22 06:33:39;;;;;;;84.93;34.58;;;23.90;53.00;;;;;;6141080;28;83621;-66
2021/11/22 06:36:39;;;;;;;76.22;33.20;;;23.90;52.80;;;;;;6145021;28;83104;-66
2021/11/22 06:39:40;;;;;;;69.13;31.23;;;23.90;52.70;;;;;;6153255;28;82998;-66
2021/11/22 06:42:40;;;;;;;70.82;28.95;;;23.90;52.40;;;;;;6152103;28;83737;-64
2021/11/22 06:45:41;;;;;;;63.13;27.42;;;23.90;52.40;;;;;;6143904;28;83208;-64
2021/11/22 06:48:42;;;;;;;69.97;28.63;;;23.90;52.70;;;;;;6143676;28;83877;-66
2021/11/22 06:51:42;;;;;;;65.80;28.05;;;23.90;52.40;;;;;;6149994;28;83466;-66
2021/11/22 06:54:43;;;;;;;68.65;27.60;;;23.90;52.30;;;;;;6141993;28;83632;-64
2021/11/22 06:57:43;;;;;;;53.15;24.23;;;23.90;52.40;;;;;;6141854;28;83319;-66
2021/11/22 07:00:44;;;;;;;53.38;25.35;;;23.80;51.90;;;;;;6144748;28;83415;-65
2021/11/22 07:03:44;;;;;;;51.28;23.27;;;23.80;52.00;;;;;;6141251;28;83132;-66
2021/11/22 07:06:45;;;;;;;49.28;20.65;;;23.90;51.90;;;;;;6141799;28;83996;-66
2021/11/22 07:09:46;;;;;;;43.25;19.42;;;23.90;52.00;;;;;;6140412;28;83186;-64
2021/11/22 07:12:47;;;;;;;36.80;18.50;;;23.90;51.90;;;;;;6144962;28;83920;-67
2021/11/22 07:15:48;;;;;;;41.22;18.63;;;23.90;52.10;;;;;;6138408;28;83224;-67
2021/11/22 07:18:48;;;;;;;35.85;17.80;;;23.90;52.00;;;;;;6142336;28;89019;-66
2021/11/22 07:21:49;;;;;;;32.65;16.75;;;23.90;51.90;;;;;;6139612;28;82967;-66
2021/11/22 07:24:50;;;;;;;36.42;17.13;;;23.90;51.90;;;;;;6144011;28;83354;-66
2021/11/22 07:27:51;;;;;;;32.85;15.48;;;23.90;51.70;;;;;;6150050;28;83019;-66
2021/11/22 07:30:52;;;;;;;28.33;14.32;;;23.90;52.20;;;;;;6140667;28;83185;-69
2021/11/22 07:33:52;;;;;;;30.40;14.60;;;23.80;51.90;;;;;;6143625;28;84372;-65
2021/11/22 07:36:53;;;;;;;29.33;13.82;;;23.90;52.00;;;;;;6144408;28;83844;-68
2021/11/22 07:39:53;;;;;;;30.42;13.85;;;23.90;52.00;;;;;;6147501;28;90100;-68
2021/11/22 07:42:54;;;;;;;25.92;13.52;;;23.80;52.00;;;;;;6146685;28;84561;-72
2021/11/22 07:45:54;;;;;;;26.15;13.25;;;23.80;51.90;;;;;;6144898;28;84942;-69
2021/11/22 07:48:55;;;;;;;24.55;12.75;;;23.80;51.70;;;;;;6148957;28;83447;-69
2021/11/22 07:51:56;;;;;;;23.55;11.88;;;23.80;51.70;;;;;;6137045;28;83321;-69
2021/11/22 07:54:57;;;;;;;21.13;12.00;;;23.80;51.80;;;;;;6137744;28;83323;-68
2021/11/22 07:57:57;;;;;;;23.85;12.68;;;23.80;51.60;;;;;;6152431;28;82815;-65
2021/11/22 08:00:58;;;;;;;34.53;13.32;;;23.70;51.10;;;;;;6148641;28;83217;-65
2021/11/22 08:03:58;;;;;;;23.42;12.88;;;23.70;51.40;;;;;;6139992;28;83469;-65
2021/11/22 08:07:01;;;;;;;26.33;12.68;;;23.70;51.60;;;;;;6135536;28;83052;-66
2021/11/22 08:10:05;;;;;;;26.73;12.00;;;23.80;52.00;;;;;;6141245;28;83561;-65
2021/11/22 08:13:05;;;;;;;20.75;11.15;;;23.80;52.00;;;;;;6146381;28;83819;-65
2021/11/22 08:16:07;;;;;;;22.38;11.50;;;23.80;52.20;;;;;;6133647;28;83465;-65
2021/11/22 08:19:08;;;;;;;20.98;11.60;;;23.80;52.00;;;;;;6140631;28;82959;-65
2021/11/22 08:22:09;;;;;;;18.13;10.50;;;23.80;52.00;;;;;;6138762;28;84119;-65
2021/11/22 08:25:11;;;;;;;24.33;10.75;;;23.80;52.20;;;;;;6144563;28;83039;-65
2021/11/22 08:28:12;;;;;;;19.48;11.48;;;23.80;52.00;;;;;;6149104;28;83284;-65
2021/11/22 08:31:12;;;;;;;19.85;10.85;;;23.80;52.20;;;;;;6147229;28;83017;-66
2021/11/22 08:34:13;;;;;;;23.35;11.23;;;23.80;52.00;;;;;;6145533;28;86264;-66
2021/11/22 08:37:13;;;;;;;18.25;10.65;;;23.80;52.50;;;;;;6145494;28;84989;-67
2021/11/22 08:40:14;;;;;;;17.42;10.35;;;23.80;51.90;;;;;;6146064;28;84952;-66
2021/11/22 08:43:14;;;;;;;21.13;10.88;;;23.80;51.80;;;;;;6148920;28;83451;-67
2021/11/22 08:46:15;;;;;;;20.98;10.00;;;23.80;52.00;;;;;;6142399;28;83906;-67
2021/11/22 08:49:15;;;;;;;18.52;10.00;;;23.80;51.90;;;;;;6149330;28;83323;-67
2021/11/22 08:52:16;;;;;;;18.20;10.05;;;23.70;51.90;;;;;;6148261;28;83665;-66
2021/11/22 08:55:18;;;;;;;18.13;10.18;;;23.80;51.90;;;;;;6145221;28;84629;-68
2021/11/22 08:58:18;;;;;;;17.80;10.13;;;23.70;51.70;;;;;;6146945;28;82762;-67
2021/11/22 09:01:19;;;;;;;17.27;10.10;;;23.70;51.70;;;;;;6144628;28;82723;-67
2021/11/22 09:04:19;;;;;;;18.20;10.63;;;23.70;51.50;;;;;;6149413;28;83541;-66
2021/11/22 09:07:20;;;;;;;16.38;9.77;;;23.80;51.60;;;;;;6150772;28;83175;-67
2021/11/22 09:10:22;;;;;;;16.98;9.60;;;23.80;51.40;;;;;;6152470;28;83001;-66
2021/11/22 09:13:22;;;;;;;16.67;8.88;;;23.80;51.30;;;;;;6149218;28;80561;-66
2021/11/22 09:16:27;;;;;;;16.05;9.05;;;23.80;51.10;;;;;;6154946;28;80531;-68
2021/11/22 09:19:27;;;;;;;14.57;9.18;;;23.80;50.90;;;;;;6150438;28;80653;-65
2021/11/22 09:22:28;;;;;;;15.65;8.63;;;23.80;50.70;;;;;;6147730;28;80751;-68
2021/11/22 09:25:29;;;;;;;17.70;9.98;;;23.80;50.70;;;;;;6149065;28;80757;-68
2021/11/22 09:28:29;;;;;;;17.52;10.18;;;23.70;50.70;;;;;;6151042;28;83334;-65
2021/11/22 09:31:30;;;;;;;16.15;9.43;;;23.80;50.20;;;;;;6146931;28;83328;-67
2021/11/22 09:34:30;;;;;;;12.35;7.80;;;23.70;50.70;;;;;;6154141;28;83200;-68
2021/11/22 09:37:32;;;;;;;11.13;7.20;;;23.80;51.30;;;;;;6154774;28;80333;-67
2021/11/22 09:40:32;;;;;;;13.55;8.57;;;23.70;52.10;;;;;;6150759;28;80634;-67
2021/11/22 09:43:33;;;;;;;18.48;10.20;;;23.70;52.40;;;;;;6151719;28;81165;-68
2021/11/22 09:46:33;;;;;;;15.32;9.45;;;23.70;52.50;;;;;;6147287;28;82971;-67
2021/11/22 09:49:34;;;;;;;17.00;9.07;;;23.70;52.60;;;;;;6152827;28;83070;-66
2021/11/22 09:52:34;;;;;;;15.38;9.55;;;23.70;52.60;;;;;;6154783;28;80704;-66
2021/11/22 09:55:35;;;;;;;13.75;8.60;;;23.70;52.70;;;;;;6154554;28;80744;-67
2021/11/22 09:58:35;;;;;;;15.70;8.98;;;23.70;52.50;;;;;;6145685;28;81147;-67
2021/11/22 10:01:36;;;;;;;14.43;9.10;;;23.70;52.70;;;;;;6152043;28;80876;-67
2021/11/22 10:04:37;;;;;;;13.73;8.05;;;23.70;52.80;;;;;;6156184;28;80667;-67
2021/11/22 10:07:37;;;;;;;16.02;9.25;;;23.70;52.70;;;;;;6153125;28;81301;-66
2021/11/22 10:10:38;;;;;;;15.45;8.95;;;23.70;52.70;;;;;;6146933;28;81231;-66
2021/11/22 10:13:38;;;;;;;14.38;8.88;;;23.70;52.80;;;;;;6150754;28;80435;-66
2021/11/22 10:16:40;;;;;;;14.77;8.50;;;23.70;53.00;;;;;;6148372;28;80612;-66
2021/11/22 10:19:41;;;;;;;14.18;8.65;;;23.70;53.10;;;;;;6150412;28;80733;-65
2021/11/22 10:22:41;;;;;;;14.52;9.05;;;23.80;53.00;;;;;;6150439;28;81158;-66
2021/11/22 10:25:42;;;;;;;14.88;9.43;;;23.70;53.00;;;;;;6151514;28;80949;-67
2021/11/22 10:28:42;;;;;;;14.55;8.98;;;23.70;53.20;;;;;;6147243;28;80988;-65
2021/11/22 10:31:43;;;;;;;16.90;8.63;;;23.70;53.10;;;;;;6151670;28;80375;-66
2021/11/22 10:34:43;;;;;;;15.15;9.00;;;23.70;53.10;;;;;;6148589;28;81691;-67
2021/11/22 10:37:44;;;;;;;11.23;7.82;;;23.70;52.90;;;;;;6141353;28;81447;-66
2021/11/22 10:40:44;;;;;;;12.77;7.70;;;23.70;53.10;;;;;;6147244;28;80884;-67
2021/11/22 10:43:51;;;;;;;12.40;8.05;;;23.70;52.80;;;;;;6141918;28;81197;-67
2021/11/22 10:46:55;;;;;;;13.15;7.72;;;23.70;52.70;;;;;;6142021;28;80567;-68
2021/11/22 10:49:59;;;;;;;13.50;7.68;;;23.70;53.00;;;;;;6140266;28;82467;-67
2021/11/22 10:53:00;;;;;;;11.75;7.63;;;23.70;52.90;;;;;;6148301;28;81499;-67
2021/11/22 10:56:01;;;;;;;12.73;7.50;;;23.70;52.80;;;;;;6147440;28;80713;-66
2021/11/22 10:59:02;;;;;;;12.23;6.20;;;23.80;52.80;;;;;;6148901;28;80614;-66
2021/11/22 11:02:02;;;;;;;12.25;6.93;;;23.70;52.90;;;;;;6148529;28;80274;-65
2021/11/22 11:05:03;;;;;;;10.15;6.57;;;23.70;52.70;;;;;;6143593;28;81356;-67
2021/11/22 11:08:03;;;;;;;8.27;5.60;;;23.70;53.00;;;;;;6145375;28;80416;-67
2021/11/22 11:11:04;;;;;;;8.07;5.65;;;23.70;52.70;;;;;;6144321;28;80984;-67
2021/11/22 11:14:04;;;;;;;10.10;5.88;;;23.70;52.70;;;;;;6131741;28;83350;-66
2021/11/22 11:17:05;;;;;;;10.85;5.53;;;23.70;53.40;;;;;;6152055;28;80686;-69
2021/11/22 11:20:05;;;;;;;16.15;6.72;;;23.70;53.50;;;;;;6149161;28;80530;-65
2021/11/22 11:23:06;;;;;;;25.13;9.32;;;23.70;53.90;;;;;;6156169;28;80288;-67
2021/11/22 11:26:06;;;;;;;25.77;8.05;;;23.70;54.00;;;;;;6145656;28;80599;-66
2021/11/22 11:29:07;;;;;;;24.60;7.78;;;23.70;54.00;;;;;;6150494;28;80268;-66
2021/11/22 11:32:07;;;;;;;24.23;8.73;;;23.70;54.50;;;;;;6144620;28;80381;-67
2021/11/22 11:35:14;;;;;;;22.17;7.65;;;23.70;54.40;;;;;;6153490;28;80760;-67
2021/11/22 11:38:14;;;;;;;18.55;7.63;;;23.70;54.60;;;;;;6149779;28;80301;-65
2021/11/22 11:41:15;;;;;;;12.73;6.55;;;23.70;54.40;;;;;;6137657;28;80795;-66
2021/11/22 11:44:15;;;;;;;21.75;6.97;;;23.70;54.40;;;;;;6150650;28;81146;-65
2021/11/22 11:47:16;;;;;;;21.10;7.25;;;23.70;54.40;;;;;;6152332;28;80535;-66
2021/11/22 11:50:16;;;;;;;16.27;7.13;;;23.70;54.20;;;;;;6144791;28;80291;-65
2021/11/22 11:53:17;;;;;;;14.65;6.32;;;23.70;53.90;;;;;;6146853;28;80628;-67
2021/11/22 11:56:17;;;;;;;14.02;6.25;;;23.70;54.20;;;;;;6140011;28;80386;-67
2021/11/22 11:59:19;;;;;;;12.13;5.78;;;23.70;53.70;;;;;;6153527;28;80566;-66
2021/11/22 12:02:21;;;;;;;14.30;5.32;;;23.70;53.50;;;;;;6137338;28;84844;-65
2021/11/22 12:05:22;;;;;;;12.43;5.47;;;23.70;53.40;;;;;;6139720;28;80564;-65
2021/11/22 12:08:23;;;;;;;10.82;5.30;;;23.70;53.20;;;;;;6142182;28;80846;-65
2021/11/22 12:11:23;;;;;;;8.32;4.45;;;23.70;52.90;;;;;;6138318;28;80012;-65
2021/11/22 12:14:24;;;;;;;9.55;5.28;;;23.70;52.90;;;;;;6147566;28;86789;-66
2021/11/22 12:17:24;;;;;;;11.68;5.03;;;23.70;52.70;;;;;;6142238;28;81665;-66
2021/11/22 12:20:25;;;;;;;12.38;5.35;;;23.70;52.90;;;;;;6153243;28;80987;-66
2021/11/22 12:23:27;;;;;;;12.20;5.32;;;23.70;52.80;;;;;;6150483;28;80442;-66
2021/11/22 12:26:28;;;;;;;8.15;4.78;;;23.70;52.70;;;;;;6140220;28;80512;-66
2021/11/22 12:29:28;;;;;;;9.50;5.32;;;23.70;52.50;;;;;;6152631;28;80565;-65
2021/11/22 12:32:29;;;;;;;9.57;4.82;;;23.70;52.50;;;;;;6145649;28;80525;-65
2021/11/22 12:35:29;;;;;;;8.85;4.22;;;23.70;52.20;;;;;;6143381;28;81930;-65
2021/11/22 12:38:30;;;;;;;9.77;4.35;;;23.70;52.20;;;;;;6147362;28;80567;-66
2021/11/22 12:41:31;;;;;;;10.52;5.40;;;23.70;53.00;;;;;;6154193;28;80497;-65
2021/11/22 12:44:31;;;;;;;160.82;59.20;;;23.70;52.20;;;;;;6141251;28;80119;-65
2021/11/22 12:47:32;;;;;;;311.90;119.68;;;23.70;52.10;;;;;;6137486;28;83998;-66
2021/11/22 12:50:33;;;;;;;361.58;136.50;;;23.70;52.00;;;;;;6139549;28;85473;-67
2021/11/22 12:53:33;;;;;;;291.60;116.85;;;23.70;52.00;;;;;;6142038;28;86231;-66
2021/11/22 12:56:34;;;;;;;247.00;101.03;;;23.70;52.00;;;;;;6139499;28;85500;-66
2021/11/22 12:59:35;;;;;;;221.35;88.38;;;23.70;52.00;;;;;;6137436;28;86827;-65
2021/11/22 13:02:36;;;;;;;197.15;78.93;;;23.70;52.00;;;;;;6147889;28;86438;-65
2021/11/22 13:05:36;;;;;;;162.57;65.82;;;23.70;51.70;;;;;;6148681;28;83779;-65
2021/11/22 13:08:38;;;;;;;136.57;57.85;;;23.70;51.70;;;;;;6146076;28;84896;-65
2021/11/22 13:11:43;;;;;;;129.77;51.08;;;23.70;51.50;;;;;;6149078;28;83091;-65
2021/11/22 13:14:52;;;;;;;121.77;48.17;;;23.60;51.30;;;;;;6144468;28;82957;-64
2021/11/22 13:17:52;;;;;;;99.63;40.33;;;23.70;51.40;;;;;;6145283;28;85719;-65
2021/11/22 13:20:53;;;;;;;95.32;37.58;;;23.70;51.30;;;;;;6146647;28;83044;-66
2021/11/22 13:23:55;;;;;;;79.88;33.35;;;23.60;51.20;;;;;;6136616;28;83549;-64
2021/11/22 13:26:55;;;;;;;73.03;31.15;;;23.60;51.60;;;;;;6140601;28;83986;-67
2021/11/22 13:29:56;;;;;;;63.40;26.17;;;23.60;51.20;;;;;;6144249;28;83013;-65
2021/11/22 13:32:56;;;;;;;64.35;25.23;;;23.70;51.30;;;;;;6142071;28;83073;-66
2021/11/22 13:35:57;;;;;;;55.35;21.38;;;23.70;51.40;;;;;;6141129;28;83150;-65
2021/11/22 13:38:57;;;;;;;46.60;21.33;;;23.70;51.20;;;;;;6148425;28;86068;-65
2021/11/22 13:41:58;;;;;;;51.40;21.05;;;23.70;51.50;;;;;;6139173;28;84309;-66
2021/11/22 13:44:58;;;;;;;39.85;16.58;;;23.60;51.30;;;;;;6149229;28;84084;-65
2021/11/22 13:47:59;;;;;;;40.63;16.10;;;23.70;51.40;;;;;;6146035;28;83315;-66
2021/11/22 13:51:00;;;;;;;29.42;12.80;;;23.60;51.60;;;;;;6149545;28;84298;-66
2021/11/22 13:54:00;;;;;;;36.38;13.77;;;23.70;51.70;;;;;;6141450;28;83504;-66
2021/11/22 13:57:01;;;;;;;28.23;12.93;;;23.70;51.80;;;;;;6138435;28;82959;-65
2021/11/22 14:00:02;;;;;;;29.58;11.73;;;23.70;51.80;;;;;;6149505;28;84189;-67
2021/11/22 14:03:13;;;;;;;22.60;10.07;;;23.70;51.60;;;;;;6151713;28;83070;-67
2021/11/22 14:06:13;;;;;;;17.63;8.48;;;23.70;51.70;;;;;;6149035;28;83099;-67
2021/11/22 14:09:17;;;;;;;22.75;9.13;;;23.70;51.60;;;;;;6139697;28;82000;-66
2021/11/22 14:12:17;;;;;;;23.48;9.25;;;23.60;51.40;;;;;;6144159;28;81741;-68
2021/11/22 14:15:19;;;;;;;22.10;7.82;;;23.70;51.70;;;;;;6146047;28;82350;-66
2021/11/22 14:18:20;;;;;;;16.70;8.27;;;23.70;51.90;;;;;;6144031;28;80997;-66
2021/11/22 14:21:20;;;;;;;17.33;7.35;;;23.70;51.60;;;;;;6153386;28;82285;-68
2021/11/22 14:24:21;;;;;;;16.67;7.32;;;23.70;51.30;;;;;;6149673;28;80575;-68
2021/11/22 14:27:22;;;;;;;14.13;6.45;;;23.70;51.70;;;;;;6143066;28;80505;-67
2021/11/22 14:30:22;;;;;;;12.55;6.25;;;23.70;50.70;;;;;;6148486;28;83109;-66
2021/11/22 14:33:23;;;;;;;13.43;6.18;;;23.70;50.30;;;;;;6141793;28;81613;-67
2021/11/22 14:36:25;;;;;;;14.93;6.75;;;23.70;50.00;;;;;;6152256;28;80239;-66
2021/11/22 14:39:25;;;;;;;11.75;6.03;;;23.70;49.70;;;;;;6152985;28;80876;-67
2021/11/22 14:42:26;;;;;;;9.70;5.47;;;23.70;49.50;;;;;;6152001;28;80590;-68
2021/11/22 14:45:27;;;;;;;12.50;4.30;;;23.60;49.30;;;;;;6145916;28;80647;-69
2021/11/22 14:48:27;;;;;;;6.53;4.00;;;23.50;49.80;;;;;;6151319;28;81899;-70
2021/11/22 14:51:28;;;;;;;10.50;3.78;;;23.40;49.80;;;;;;6150618;28;80688;-70
2021/11/22 14:54:28;;;;;;;5.25;3.03;;;23.40;50.00;;;;;;6150921;28;83028;-69
2021/11/22 14:57:29;;;;;;;5.50;3.00;;;23.40;50.70;;;;;;6151708;28;80186;-68
2021/11/22 15:00:30;;;;;;;6.63;3.65;;;23.30;51.40;;;;;;6149937;28;80636;-68
2021/11/22 15:03:30;;;;;;;5.75;3.45;;;23.40;52.30;;;;;;6150232;28;81657;-68
2021/11/22 15:06:31;;;;;;;5.20;3.45;;;23.40;52.70;;;;;;6151422;28;80608;-66
2021/11/22 15:09:32;;;;;;;5.90;2.90;;;23.40;53.00;;;;;;6153768;28;80597;-67
2021/11/22 15:12:32;;;;;;;4.32;3.17;;;23.40;53.90;;;;;;6150670;28;80677;-68
2021/11/22 15:15:33;;;;;;;5.57;3.15;;;23.30;54.40;;;;;;6150833;28;82686;-67
2021/11/22 15:18:33;;;;;;;9.57;4.45;;;23.40;54.90;;;;;;6148910;28;80482;-67
2021/11/22 15:21:34;;;;;;;50.50;11.27;;;23.50;54.90;;;;;;6153212;28;81266;-66